Time;durP1;ratioP1;P1;durP2;ratioP2;P2;SDS_P1;SDS_P2;PMS_P1;PMS_P2;Temp;Humidity;BMP_temperature;BMP_pressure;BME280_temperature;BME280_humidity;BME280_pressure;Samples;Min_cycle;Max_cycle;Signal;HPM_P1;HPM_P2
2021/06/11 00:01:15;;;;;;;10.87;9.70;;;15.70;99.90;;;;;;5073313;28;20655;-82
2021/06/11 00:03:44;;;;;;;10.63;9.63;;;15.60;99.90;;;;;;5072712;28;21611;-83
2021/06/11 00:06:10;;;;;;;10.60;9.60;;;15.60;99.90;;;;;;5072916;28;20621;-82
2021/06/11 00:08:37;;;;;;;12.30;10.30;;;15.60;99.90;;;;;;5073739;28;20625;-82
2021/06/11 00:11:04;;;;;;;11.50;10.50;;;15.60;99.90;;;;;;5073423;28;21526;-82
2021/06/11 00:13:30;;;;;;;10.70;9.63;;;15.50;99.90;;;;;;5073443;28;21275;-83
2021/06/11 00:15:57;;;;;;;11.07;8.60;;;15.50;99.90;;;;;;5072936;28;20719;-83
2021/06/11 00:18:23;;;;;;;10.20;9.10;;;15.40;99.90;;;;;;5073753;28;20617;-83
2021/06/11 00:20:53;;;;;;;10.87;9.77;;;15.30;99.90;;;;;;5073480;28;20617;-82
2021/06/11 00:23:20;;;;;;;9.03;8.13;;;15.20;99.90;;;;;;5073336;28;20668;-82
2021/06/11 00:25:46;;;;;;;10.43;9.53;;;15.30;99.90;;;;;;5072687;28;20644;-82
2021/06/11 00:28:13;;;;;;;10.00;9.00;;;15.20;99.90;;;;;;5073054;28;20617;-82
2021/06/11 00:30:40;;;;;;;8.83;8.03;;;15.20;99.90;;;;;;5072661;28;21552;-82
2021/06/11 00:33:08;;;;;;;10.33;9.30;;;15.10;99.90;;;;;;5073366;28;20613;-82
2021/06/11 00:35:35;;;;;;;9.33;8.43;;;15.00;99.90;;;;;;5072459;28;20687;-82
2021/06/11 00:38:03;;;;;;;10.67;9.67;;;15.10;99.90;;;;;;5073054;28;20644;-82
2021/06/11 00:40:31;;;;;;;12.90;8.77;;;15.10;99.90;;;;;;5072931;28;20626;-82
2021/06/11 00:42:57;;;;;;;11.07;9.97;;;15.10;99.90;;;;;;5072518;28;20798;-82
2021/06/11 00:45:24;;;;;;;9.80;8.90;;;15.00;99.90;;;;;;5071788;28;20613;-82
2021/06/11 00:47:50;;;;;;;9.43;8.53;;;15.00;99.90;;;;;;5072576;28;21182;-82
2021/06/11 00:50:19;;;;;;;9.37;8.47;;;15.00;99.90;;;;;;5072942;28;20628;-82
2021/06/11 00:52:46;;;;;;;10.87;9.27;;;14.90;99.90;;;;;;5072797;28;20651;-82
2021/06/11 00:55:13;;;;;;;11.30;10.17;;;14.90;99.90;;;;;;5072386;28;21029;-83
2021/06/11 00:57:40;;;;;;;12.93;9.10;;;14.90;99.90;;;;;;5072165;28;20616;-83
2021/06/11 01:00:08;;;;;;;11.50;9.60;;;14.90;99.90;;;;;;5072755;28;20679;-82
2021/06/11 01:02:34;;;;;;;11.50;8.83;;;14.80;99.90;;;;;;5072055;28;20881;-83
2021/06/11 01:05:02;;;;;;;10.50;9.40;;;14.80;99.90;;;;;;5071060;28;20613;-82
2021/06/11 01:07:34;;;;;;;10.70;9.60;;;14.80;99.90;;;;;;5072394;28;20727;-82
2021/06/11 01:10:03;;;;;;;11.83;10.60;;;14.70;99.90;;;;;;5072619;28;20947;-82
2021/06/11 01:12:33;;;;;;;11.20;9.87;;;14.60;99.90;;;;;;5072390;28;21035;-82
2021/06/11 01:15:01;;;;;;;10.50;9.50;;;14.60;99.90;;;;;;5071884;28;20621;-82
2021/06/11 01:17:30;;;;;;;10.73;9.10;;;14.60;99.90;;;;;;5072112;28;20625;-82
2021/06/11 01:19:58;;;;;;;10.27;9.17;;;14.70;99.90;;;;;;5072260;28;21019;-82
2021/06/11 01:22:36;;;;;;;10.47;9.47;;;14.70;99.90;;;;;;5066344;28;21284;-82
2021/06/11 01:25:14;;;;;;;10.47;9.30;;;14.70;99.90;;;;;;5071471;28;20635;-82
2021/06/11 01:27:46;;;;;;;14.67;8.63;;;14.60;99.90;;;;;;5071880;28;21011;-82
2021/06/11 01:30:17;;;;;;;10.47;9.43;;;14.60;99.90;;;;;;5072267;28;20616;-82
2021/06/11 01:32:47;;;;;;;11.90;9.93;;;14.60;99.90;;;;;;5072001;28;21005;-82
2021/06/11 01:35:19;;;;;;;10.33;9.33;;;14.70;99.90;;;;;;5071038;28;20617;-82
2021/06/11 01:37:48;;;;;;;13.57;11.10;;;14.60;99.90;;;;;;5071603;28;20977;-82
2021/06/11 01:40:18;;;;;;;12.00;10.70;;;14.60;99.90;;;;;;5071812;28;20625;-82
2021/06/11 01:42:50;;;;;;;13.53;12.20;;;14.60;99.90;;;;;;5071551;28;20756;-82
2021/06/11 01:45:20;;;;;;;12.33;11.13;;;14.50;99.90;;;;;;5071132;28;21303;-82
2021/06/11 01:47:51;;;;;;;13.83;12.20;;;14.50;99.90;;;;;;5071120;28;20716;-82
2021/06/11 01:50:23;;;;;;;12.17;10.97;;;14.50;99.90;;;;;;5071486;28;21208;-82
2021/06/11 01:52:53;;;;;;;13.03;11.73;;;14.40;99.90;;;;;;5071683;28;20623;-82
2021/06/11 01:55:22;;;;;;;16.43;11.90;;;14.30;99.90;;;;;;5070910;28;20601;-81
2021/06/11 01:57:51;;;;;;;12.00;10.80;;;14.20;99.90;;;;;;5071324;28;21092;-82
2021/06/11 02:00:19;;;;;;;13.07;11.70;;;14.20;99.90;;;;;;5065461;28;20628;-81
2021/06/11 02:02:47;;;;;;;14.00;12.60;;;14.20;99.90;;;;;;5068504;28;20664;-82
2021/06/11 02:05:16;;;;;;;13.17;11.87;;;14.30;99.90;;;;;;5067538;28;20629;-82
2021/06/11 02:07:46;;;;;;;12.17;10.50;;;14.30;99.90;;;;;;5071424;28;21217;-81
2021/06/11 02:10:17;;;;;;;12.47;11.23;;;14.30;99.90;;;;;;5071556;28;20723;-81
2021/06/11 02:12:46;;;;;;;12.20;11.00;;;14.20;99.90;;;;;;5070844;28;20640;-82
2021/06/11 02:15:17;;;;;;;13.67;11.80;;;14.20;99.90;;;;;;5070474;28;20628;-81
2021/06/11 02:17:46;;;;;;;12.83;11.53;;;14.20;99.90;;;;;;5070904;28;20624;-82
2021/06/11 02:20:16;;;;;;;12.83;11.50;;;14.30;99.90;;;;;;5071000;28;20621;-82
2021/06/11 02:22:45;;;;;;;12.67;11.37;;;14.30;99.90;;;;;;5070921;28;20633;-82
2021/06/11 02:25:19;;;;;;;14.23;11.83;;;14.20;99.90;;;;;;5070056;28;20682;-82
2021/06/11 02:27:49;;;;;;;11.40;10.30;;;14.20;99.90;;;;;;5071006;28;20620;-82
2021/06/11 02:30:19;;;;;;;12.30;11.20;;;14.20;99.90;;;;;;5070748;28;20621;-82
2021/06/11 02:32:46;;;;;;;14.40;12.73;;;14.20;99.90;;;;;;5070963;28;20610;-82
2021/06/11 02:35:16;;;;;;;12.30;11.10;;;14.20;99.90;;;;;;5070286;28;20612;-82
2021/06/11 02:37:42;;;;;;;12.70;11.40;;;14.20;99.90;;;;;;5070410;28;21009;-82
2021/06/11 02:40:09;;;;;;;16.67;10.90;;;14.20;99.90;;;;;;5070231;28;20609;-82
2021/06/11 02:42:36;;;;;;;13.33;11.50;;;14.20;99.90;;;;;;5070151;28;20692;-82
2021/06/11 02:45:08;;;;;;;12.93;11.53;;;14.10;99.90;;;;;;5069763;28;20646;-82
2021/06/11 02:47:41;;;;;;;14.73;13.23;;;14.20;99.90;;;;;;5070288;28;20617;-82
2021/06/11 02:50:13;;;;;;;12.97;11.67;;;14.10;99.90;;;;;;5069069;28;20659;-81
2021/06/11 02:52:44;;;;;;;13.63;11.80;;;14.10;99.90;;;;;;5070509;28;20612;-81
2021/06/11 02:55:15;;;;;;;12.73;11.53;;;14.10;99.90;;;;;;5069556;28;20605;-82
2021/06/11 02:57:48;;;;;;;13.43;12.07;;;14.10;99.90;;;;;;5070184;28;20610;-82
2021/06/11 03:00:15;;;;;;;12.30;11.20;;;14.00;99.90;;;;;;5070278;28;20601;-82
2021/06/11 03:02:50;;;;;;;11.90;10.70;;;14.00;99.90;;;;;;5070081;28;20645;-82
2021/06/11 03:05:19;;;;;;;11.70;10.03;;;14.00;99.90;;;;;;5068682;28;20981;-82
2021/06/11 03:07:47;;;;;;;12.97;11.00;;;14.00;99.90;;;;;;5070544;28;20704;-82
2021/06/11 03:10:15;;;;;;;12.83;10.43;;;14.00;99.90;;;;;;5070482;28;20782;-82
2021/06/11 03:12:45;;;;;;;13.53;12.13;;;14.00;99.90;;;;;;5070614;28;21003;-82
2021/06/11 03:15:13;;;;;;;11.77;10.53;;;14.00;99.90;;;;;;5069475;28;20621;-82
2021/06/11 03:17:45;;;;;;;13.30;11.67;;;14.00;99.90;;;;;;5070549;28;21189;-82
2021/06/11 03:20:15;;;;;;;13.87;12.47;;;14.00;99.90;;;;;;5070141;28;20612;-82
2021/06/11 03:22:49;;;;;;;13.57;11.90;;;13.90;99.90;;;;;;5069948;28;20676;-82
2021/06/11 03:25:21;;;;;;;13.57;12.07;;;13.90;99.90;;;;;;5069391;28;20666;-81
2021/06/11 03:27:52;;;;;;;14.13;12.63;;;13.90;99.90;;;;;;5070198;28;20605;-82
2021/06/11 03:30:20;;;;;;;14.00;12.50;;;13.90;99.90;;;;;;5070092;28;20612;-82
2021/06/11 03:32:52;;;;;;;12.77;11.47;;;14.00;99.90;;;;;;5070075;28;20663;-82
2021/06/11 03:35:23;;;;;;;12.90;11.57;;;14.00;99.90;;;;;;5069635;28;20667;-82
2021/06/11 03:37:53;;;;;;;14.30;11.40;;;14.00;99.90;;;;;;5069909;28;20613;-82
2021/06/11 03:40:24;;;;;;;13.83;12.47;;;14.00;99.90;;;;;;5069938;28;20597;-82
2021/06/11 03:42:52;;;;;;;14.40;13.00;;;14.00;99.90;;;;;;5070072;28;20641;-82
2021/06/11 03:45:20;;;;;;;13.03;11.73;;;14.10;99.90;;;;;;5069642;28;20625;-82
2021/06/11 03:47:49;;;;;;;15.13;13.47;;;14.20;99.90;;;;;;5069949;28;20755;-82
2021/06/11 03:50:20;;;;;;;14.17;12.43;;;14.30;99.90;;;;;;5070111;28;20719;-81
2021/06/11 03:52:51;;;;;;;14.40;12.13;;;14.30;99.90;;;;;;5069189;28;20621;-81
2021/06/11 03:55:21;;;;;;;14.77;12.70;;;14.30;99.90;;;;;;5069746;28;20844;-82
2021/06/11 03:57:51;;;;;;;15.37;13.87;;;14.30;99.90;;;;;;5069963;28;20668;-82
2021/06/11 04:00:19;;;;;;;17.77;13.53;;;14.40;99.90;;;;;;5069924;28;20704;-82
2021/06/11 04:02:47;;;;;;;14.67;12.70;;;14.30;99.90;;;;;;5072636;28;20720;-82
2021/06/11 04:05:14;;;;;;;14.53;13.00;;;14.40;99.90;;;;;;5071362;28;20771;-82
2021/06/11 04:07:45;;;;;;;16.10;13.90;;;14.40;99.90;;;;;;5073334;28;20620;-82
2021/06/11 04:10:18;;;;;;;14.80;12.70;;;14.40;99.90;;;;;;5073246;28;20610;-82
2021/06/11 04:12:48;;;;;;;16.83;13.47;;;14.50;99.90;;;;;;5073222;28;20623;-82
2021/06/11 04:15:15;;;;;;;16.17;13.80;;;14.50;99.90;;;;;;5072709;28;20628;-82
2021/06/11 04:17:46;;;;;;;14.70;13.30;;;14.50;99.90;;;;;;5067098;28;20648;-82
2021/06/11 04:20:20;;;;;;;14.07;12.67;;;14.60;99.90;;;;;;5073152;28;20953;-82
2021/06/11 04:22:50;;;;;;;15.90;14.20;;;14.70;99.90;;;;;;5073037;28;20690;-82
2021/06/11 04:25:17;;;;;;;20.23;13.40;;;14.70;99.90;;;;;;5072163;28;21031;-82
2021/06/11 04:27:45;;;;;;;13.23;11.53;;;14.70;99.90;;;;;;5073038;28;20621;-82
2021/06/11 04:30:15;;;;;;;14.10;12.43;;;14.80;99.90;;;;;;5072640;28;21011;-82
2021/06/11 04:32:42;;;;;;;16.10;13.67;;;14.80;99.90;;;;;;5072891;28;20678;-82
2021/06/11 04:35:09;;;;;;;16.37;12.97;;;14.90;99.90;;;;;;5072676;28;20605;-82
2021/06/11 04:37:38;;;;;;;15.03;13.30;;;15.00;99.90;;;;;;5072893;28;20617;-82
2021/06/11 04:40:06;;;;;;;14.10;12.07;;;15.00;99.90;;;;;;5072779;28;20613;-82
2021/06/11 04:42:34;;;;;;;14.53;12.73;;;15.10;99.90;;;;;;5072440;28;20645;-82
2021/06/11 04:45:00;;;;;;;14.70;12.60;;;15.10;99.90;;;;;;5072131;28;20605;-82
2021/06/11 04:47:29;;;;;;;14.63;12.90;;;15.10;99.90;;;;;;5072750;28;21153;-82
2021/06/11 04:49:56;;;;;;;14.33;12.93;;;15.20;99.90;;;;;;5069190;28;20641;-82
2021/06/11 04:52:25;;;;;;;15.17;13.03;;;15.20;99.90;;;;;;5069891;28;20614;-82
2021/06/11 04:54:53;;;;;;;14.10;12.70;;;15.20;99.90;;;;;;5070435;28;20649;-81
2021/06/11 04:57:19;;;;;;;14.33;12.80;;;15.30;99.90;;;;;;5070991;28;20643;-82
2021/06/11 04:59:46;;;;;;;15.80;12.93;;;15.30;99.90;;;;;;5071440;28;21284;-82
2021/06/11 05:02:12;;;;;;;12.27;10.97;;;15.30;99.90;;;;;;5072345;28;20706;-82
2021/06/11 05:04:39;;;;;;;15.00;12.07;;;15.30;99.90;;;;;;5070796;28;20621;-82
2021/06/11 05:07:05;;;;;;;15.13;13.70;;;15.40;99.90;;;;;;5072317;28;20628;-82
2021/06/11 05:09:32;;;;;;;12.23;11.03;;;15.50;99.90;;;;;;5071645;28;20620;-82
2021/06/11 05:12:00;;;;;;;15.60;13.37;;;15.50;99.90;;;;;;5071749;28;20715;-82
2021/06/11 05:14:26;;;;;;;13.20;11.77;;;15.60;99.90;;;;;;5064848;28;20752;-82
2021/06/11 05:16:53;;;;;;;13.47;12.03;;;15.60;99.90;;;;;;5071663;28;21154;-82
2021/06/11 05:19:19;;;;;;;12.10;10.87;;;15.70;99.90;;;;;;5071772;28;20617;-82
2021/06/11 05:21:45;;;;;;;14.03;11.70;;;15.80;99.90;;;;;;5065402;28;20618;-82
2021/06/11 05:24:12;;;;;;;13.40;12.07;;;15.80;99.90;;;;;;5068140;28;20609;-83
2021/06/11 05:26:38;;;;;;;14.13;11.90;;;15.80;99.90;;;;;;5070345;28;20637;-82
2021/06/11 05:29:07;;;;;;;15.70;11.90;;;15.80;99.90;;;;;;5068309;28;20617;-83
2021/06/11 05:31:33;;;;;;;13.10;11.87;;;15.90;99.90;;;;;;5055876;28;20630;-83
2021/06/11 05:34:00;;;;;;;13.00;11.70;;;15.90;99.90;;;;;;5065388;28;20620;-83
2021/06/11 05:36:27;;;;;;;14.03;12.53;;;16.10;99.90;;;;;;5070147;28;20617;-83
2021/06/11 05:38:53;;;;;;;13.67;12.37;;;16.10;99.90;;;;;;5067804;28;20637;-83
2021/06/11 05:41:19;;;;;;;13.57;11.47;;;16.20;99.90;;;;;;5068873;28;20617;-83
2021/06/11 05:43:46;;;;;;;12.40;11.20;;;16.20;99.90;;;;;;5069682;28;20700;-83
2021/06/11 05:46:15;;;;;;;14.40;11.70;;;16.20;99.90;;;;;;5070357;28;21565;-82
2021/06/11 05:48:43;;;;;;;13.10;10.80;;;16.30;99.90;;;;;;5071758;28;20653;-83
2021/06/11 05:51:09;;;;;;;17.90;13.33;;;16.40;99.90;;;;;;5069685;28;21157;-84
2021/06/11 05:53:36;;;;;;;13.60;12.10;;;16.40;99.90;;;;;;5070407;28;20642;-84
2021/06/11 05:56:04;;;;;;;17.40;12.53;;;16.40;99.90;;;;;;5068316;28;20614;-83
2021/06/11 05:58:31;;;;;;;16.37;12.10;;;16.50;99.90;;;;;;5071249;28;20623;-83
2021/06/11 06:00:57;;;;;;;13.63;12.27;;;16.60;99.90;;;;;;5051688;28;20658;-83
2021/06/11 06:03:25;;;;;;;14.00;12.47;;;16.70;99.90;;;;;;5069893;28;20658;-83
2021/06/11 06:05:52;;;;;;;14.90;11.43;;;16.70;99.90;;;;;;5071527;28;20621;-84
2021/06/11 06:08:19;;;;;;;14.00;12.60;;;16.70;99.90;;;;;;5071869;28;20679;-83
2021/06/11 06:10:46;;;;;;;13.37;12.17;;;16.80;99.90;;;;;;5073061;28;20612;-84
2021/06/11 06:13:12;;;;;;;12.80;11.43;;;16.90;99.90;;;;;;5074616;28;20622;-84
2021/06/11 06:15:39;;;;;;;12.30;11.00;;;17.00;99.90;;;;;;5071073;28;20979;-84
2021/06/11 06:18:06;;;;;;;15.00;12.70;;;17.10;99.90;;;;;;5070802;28;20619;-83
2021/06/11 06:20:34;;;;;;;13.37;11.50;;;17.20;99.90;;;;;;5062596;28;20624;-84
2021/06/11 06:23:00;;;;;;;14.57;12.13;;;17.20;99.90;;;;;;5051571;28;20636;-84
2021/06/11 06:25:29;;;;;;;11.47;10.37;;;17.30;99.90;;;;;;5061351;28;20658;-85
2021/06/11 06:27:56;;;;;;;13.70;12.30;;;17.50;99.90;;;;;;5072497;28;20628;-84
2021/06/11 06:30:30;;;;;;;12.43;11.23;;;17.50;99.90;;;;;;5064089;28;21205;-85
2021/06/11 06:32:57;;;;;;;12.77;11.47;;;17.60;99.90;;;;;;5070895;28;20636;-86
2021/06/11 06:35:24;;;;;;;12.50;11.40;;;17.60;99.90;;;;;;5064237;28;20616;-85
2021/06/11 06:37:52;;;;;;;14.10;12.80;;;17.80;99.90;;;;;;5065884;28;20658;-86
2021/06/11 06:40:18;;;;;;;13.80;12.30;;;17.70;99.90;;;;;;5065928;28;21531;-86
2021/06/11 06:42:45;;;;;;;15.60;12.33;;;17.70;99.90;;;;;;5069357;28;20656;-84
2021/06/11 06:45:13;;;;;;;13.50;12.17;;;17.90;99.90;;;;;;5061448;28;20712;-86
2021/06/11 06:47:42;;;;;;;14.07;12.70;;;17.90;99.90;;;;;;5070158;28;20705;-85
2021/06/11 06:50:09;;;;;;;13.33;11.80;;;18.00;99.90;;;;;;5065506;28;20644;-82
2021/06/11 06:52:36;;;;;;;14.10;12.63;;;18.20;99.90;;;;;;5054921;28;20636;-84
2021/06/11 06:55:05;;;;;;;14.20;12.80;;;18.40;99.90;;;;;;5062241;28;20986;-84
2021/06/11 06:57:31;;;;;;;14.90;12.23;;;18.20;99.90;;;;;;5064978;28;21174;-84
2021/06/11 06:59:58;;;;;;;13.60;12.20;;;18.20;99.90;;;;;;5066708;28;20618;-83
2021/06/11 07:02:24;;;;;;;13.97;11.67;;;18.40;99.90;;;;;;5057478;28;21158;-84
2021/06/11 07:04:51;;;;;;;14.40;12.90;;;18.60;99.90;;;;;;5063151;28;20619;-84
2021/06/11 07:07:18;;;;;;;14.53;13.00;;;18.70;99.90;;;;;;5070851;28;20697;-84
2021/06/11 07:09:44;;;;;;;17.40;13.10;;;18.60;99.90;;;;;;5057108;28;20646;-84
2021/06/11 07:12:12;;;;;;;13.77;12.47;;;18.70;99.90;;;;;;5054960;28;20684;-84
2021/06/11 07:14:40;;;;;;;13.87;12.47;;;18.80;99.90;;;;;;5058067;28;20675;-84
2021/06/11 07:17:07;;;;;;;14.87;13.40;;;18.90;99.90;;;;;;5059752;28;20701;-85
2021/06/11 07:19:34;;;;;;;13.80;12.50;;;19.00;99.90;;;;;;5059426;28;20613;-85
2021/06/11 07:22:02;;;;;;;14.43;10.70;;;19.10;99.90;;;;;;5068803;28;20629;-84
2021/06/11 07:24:31;;;;;;;15.17;13.70;;;19.30;99.90;;;;;;5058067;28;20621;-85
2021/06/11 07:26:58;;;;;;;14.10;12.80;;;19.30;99.90;;;;;;5056714;28;20636;-85
2021/06/11 07:29:26;;;;;;;12.73;11.57;;;19.30;99.90;;;;;;5063410;28;21138;-85
2021/06/11 07:31:52;;;;;;;14.90;13.40;;;19.60;99.90;;;;;;5070114;28;21189;-84
2021/06/11 07:34:19;;;;;;;14.93;13.33;;;19.60;99.90;;;;;;5070059;28;21291;-85
2021/06/11 07:36:46;;;;;;;13.57;12.37;;;19.70;99.90;;;;;;5059890;28;20622;-84
2021/06/11 07:39:12;;;;;;;12.97;11.87;;;19.80;99.90;;;;;;5071169;28;20680;-83
2021/06/11 07:41:39;;;;;;;14.13;11.50;;;20.00;99.90;;;;;;5068922;28;20622;-84
2021/06/11 07:44:05;;;;;;;11.97;10.87;;;20.10;99.90;;;;;;5068207;28;20643;-84
2021/06/11 07:46:36;;;;;;;13.30;12.07;;;20.20;99.90;;;;;;5072668;28;20601;-84
2021/06/11 07:49:03;;;;;;;13.07;11.90;;;20.30;99.90;;;;;;5067077;28;21221;-84
2021/06/11 07:51:30;;;;;;;13.10;11.80;;;20.50;99.90;;;;;;5072865;28;20618;-84
2021/06/11 07:53:57;;;;;;;15.33;11.30;;;20.60;99.90;;;;;;5073102;28;20619;-84
2021/06/11 07:56:23;;;;;;;11.57;10.57;;;20.50;99.80;;;;;;5072606;28;20670;-84
2021/06/11 07:58:49;;;;;;;13.47;11.57;;;20.80;99.90;;;;;;5073548;28;20629;-84
2021/06/11 08:01:16;;;;;;;13.67;12.00;;;21.00;99.50;;;;;;5073789;28;20629;-84
2021/06/11 08:03:44;;;;;;;13.20;11.90;;;21.10;98.30;;;;;;5063007;28;20664;-84
2021/06/11 08:06:11;;;;;;;13.30;12.00;;;21.10;98.40;;;;;;5065392;28;20615;-85
2021/06/11 08:08:37;;;;;;;13.23;12.03;;;21.00;98.50;;;;;;5063198;28;20732;-85
2021/06/11 08:11:04;;;;;;;11.90;10.80;;;21.00;97.30;;;;;;5068312;28;20634;-84
2021/06/11 08:13:30;;;;;;;11.67;10.40;;;21.10;98.40;;;;;;5074123;28;20615;-85
2021/06/11 08:15:57;;;;;;;12.30;11.20;;;21.20;96.60;;;;;;5074365;28;20616;-84
2021/06/11 08:18:23;;;;;;;12.80;11.60;;;21.20;98.10;;;;;;5075270;28;20623;-84
2021/06/11 08:20:51;;;;;;;13.17;11.87;;;21.40;97.80;;;;;;5074165;28;20608;-85
2021/06/11 08:23:18;;;;;;;11.83;10.73;;;21.60;97.50;;;;;;5067549;28;20689;-84
2021/06/11 08:25:44;;;;;;;11.97;10.90;;;21.60;97.20;;;;;;5072346;28;20636;-85
2021/06/11 08:28:11;;;;;;;13.33;12.23;;;21.80;98.00;;;;;;5074748;28;20612;-84
2021/06/11 08:30:37;;;;;;;12.60;11.50;;;22.00;96.70;;;;;;5073623;28;21027;-84
2021/06/11 08:33:06;;;;;;;13.43;12.17;;;22.10;96.80;;;;;;5072314;28;20681;-85
2021/06/11 08:35:34;;;;;;;14.20;12.80;;;22.10;96.30;;;;;;5058296;28;20635;-85
2021/06/11 08:38:03;;;;;;;12.37;11.23;;;22.20;96.20;;;;;;5069788;28;20623;-85
2021/06/11 08:40:29;;;;;;;12.87;11.77;;;22.20;95.40;;;;;;5065933;28;20641;-85
2021/06/11 08:42:56;;;;;;;13.40;11.23;;;22.20;95.40;;;;;;5072591;28;20688;-85
2021/06/11 08:45:23;;;;;;;11.97;10.90;;;22.40;95.90;;;;;;5074259;28;20651;-85
2021/06/11 08:47:51;;;;;;;11.70;10.60;;;22.50;96.10;;;;;;5074814;28;20621;-85
2021/06/11 08:50:23;;;;;;;12.00;10.83;;;22.40;96.40;;;;;;5074994;28;20645;-84
2021/06/11 08:52:49;;;;;;;11.77;10.77;;;22.50;95.90;;;;;;5071490;28;20608;-85
2021/06/11 08:55:19;;;;;;;10.83;9.90;;;22.80;95.70;;;;;;5068400;28;21573;-85
2021/06/11 08:57:45;;;;;;;12.80;11.60;;;22.90;95.80;;;;;;5069863;28;20612;-85
2021/06/11 09:00:13;;;;;;;13.50;12.13;;;23.00;95.80;;;;;;5064641;28;20653;-85
2021/06/11 09:03:07;;;;;;;11.60;10.60;;;23.10;94.60;;;;;;5072521;28;20656;-85
2021/06/11 09:05:34;;;;;;;12.40;11.10;;;23.20;94.80;;;;;;5067613;28;20679;-84
2021/06/11 09:08:15;;;;;;;12.00;10.90;;;23.40;94.60;;;;;;5073626;28;20613;-84
2021/06/11 09:10:45;;;;;;;12.80;11.50;;;23.50;94.00;;;;;;5070431;28;20704;-84
2021/06/11 09:13:20;;;;;;;11.90;10.80;;;23.70;93.10;;;;;;5072366;28;20647;-85
2021/06/11 09:15:47;;;;;;;13.67;12.40;;;23.90;93.20;;;;;;5070586;28;20720;-84
2021/06/11 09:18:24;;;;;;;15.30;13.90;;;23.90;92.60;;;;;;5072323;28;20632;-85
2021/06/11 09:20:51;;;;;;;16.50;15.00;;;23.20;92.20;;;;;;5065775;28;20694;-85
2021/06/11 09:23:18;;;;;;;14.80;13.03;;;23.10;92.20;;;;;;5072190;28;20637;-85
2021/06/11 09:25:49;;;;;;;13.13;12.00;;;23.10;92.50;;;;;;5070281;28;20621;-85
2021/06/11 09:28:17;;;;;;;12.47;11.40;;;23.10;92.60;;;;;;5071717;28;21026;-84
2021/06/11 09:30:50;;;;;;;13.80;12.40;;;23.00;92.20;;;;;;5069374;28;21162;-84
2021/06/11 09:33:19;;;;;;;15.33;13.73;;;23.00;93.00;;;;;;5071374;28;20651;-84
2021/06/11 09:35:47;;;;;;;14.10;12.20;;;22.90;91.70;;;;;;5070573;28;20617;-84
2021/06/11 09:38:18;;;;;;;15.00;13.60;;;22.50;93.00;;;;;;5071292;28;20617;-84
2021/06/11 09:40:48;;;;;;;14.83;13.53;;;22.50;93.50;;;;;;5068510;28;20651;-85
2021/06/11 09:43:15;;;;;;;15.70;14.30;;;22.20;93.90;;;;;;5071320;28;20672;-84
2021/06/11 09:45:42;;;;;;;15.33;13.90;;;22.20;93.90;;;;;;5071186;28;20608;-85
2021/06/11 09:48:24;;;;;;;14.90;13.50;;;22.10;94.50;;;;;;5071425;28;20624;-84
2021/06/11 09:50:51;;;;;;;13.80;12.60;;;22.00;94.50;;;;;;5072313;28;20626;-84
2021/06/11 09:53:23;;;;;;;14.10;12.93;;;22.00;94.30;;;;;;5069693;28;20616;-84
2021/06/11 09:55:54;;;;;;;13.23;11.80;;;22.10;95.20;;;;;;5071707;28;20612;-84
2021/06/11 09:58:22;;;;;;;12.90;11.60;;;22.10;95.10;;;;;;5067535;28;20629;-85
2021/06/11 10:00:54;;;;;;;14.00;12.57;;;22.20;95.60;;;;;;5068537;28;20633;-85
2021/06/11 10:03:23;;;;;;;13.80;12.63;;;22.50;95.80;;;;;;5069471;28;20648;-85
2021/06/11 10:05:52;;;;;;;12.53;11.43;;;22.70;94.30;;;;;;5070136;28;21046;-84
2021/06/11 10:08:20;;;;;;;13.43;12.23;;;23.00;93.70;;;;;;5051138;28;20668;-84
2021/06/11 10:10:48;;;;;;;13.30;12.20;;;23.00;93.30;;;;;;5050544;28;20708;-84
2021/06/11 10:13:17;;;;;;;13.10;11.90;;;23.00;93.10;;;;;;5068404;28;20678;-85
2021/06/11 10:15:45;;;;;;;12.73;11.63;;;22.90;94.00;;;;;;5062545;28;20653;-85
2021/06/11 10:18:13;;;;;;;13.77;12.47;;;23.10;92.20;;;;;;5066991;28;20710;-84
2021/06/11 10:20:40;;;;;;;12.80;11.50;;;23.40;92.80;;;;;;5065864;28;20663;-86
2021/06/11 10:23:09;;;;;;;13.57;12.37;;;23.70;92.50;;;;;;5066729;28;21174;-85
2021/06/11 10:25:40;;;;;;;12.90;11.80;;;23.80;91.20;;;;;;5067629;28;20641;-84
2021/06/11 10:28:11;;;;;;;15.77;11.90;;;23.90;91.50;;;;;;5070047;28;20704;-85
2021/06/11 10:30:39;;;;;;;13.03;11.93;;;24.10;91.30;;;;;;5066495;28;20617;-85
2021/06/11 10:33:06;;;;;;;13.20;12.20;;;24.50;91.20;;;;;;5069798;28;20616;-85
2021/06/11 10:35:50;;;;;;;13.23;12.13;;;24.80;90.70;;;;;;5068850;28;20644;-85
2021/06/11 10:38:33;;;;;;;13.43;12.23;;;25.20;87.30;;;;;;5069668;28;20674;-84
2021/06/11 10:41:01;;;;;;;13.00;11.90;;;25.30;86.90;;;;;;5069545;28;20609;-85
2021/06/11 10:43:30;;;;;;;13.37;12.07;;;25.50;83.50;;;;;;5058327;28;20650;-85
2021/06/11 10:45:59;;;;;;;14.30;12.90;;;25.70;84.30;;;;;;5069744;28;20618;-86
2021/06/11 10:48:46;;;;;;;12.40;11.50;;;25.90;81.00;;;;;;5070408;28;20639;-87
2021/06/11 10:51:34;;;;;;;13.40;12.30;;;26.00;78.90;;;;;;5067873;28;20659;-86
2021/06/11 10:54:25;;;;;;;13.10;12.00;;;26.20;80.10;;;;;;5069648;28;20967;-86
2021/06/11 10:57:14;;;;;;;15.33;14.13;;;26.40;79.50;;;;;;5070062;28;20976;-86
2021/06/11 10:59:43;;;;;;;13.43;12.30;;;26.50;77.30;;;;;;5069834;28;20633;-86
2021/06/11 11:02:13;;;;;;;11.23;10.40;;;26.70;76.70;;;;;;5070252;28;20614;-86
2021/06/11 11:04:42;;;;;;;11.30;10.30;;;27.00;78.80;;;;;;5067443;28;20656;-86
2021/06/11 11:07:34;;;;;;;12.70;11.70;;;27.40;74.10;;;;;;5070486;28;20624;-86
2021/06/11 11:10:02;;;;;;;13.37;12.30;;;27.60;68.10;;;;;;5069156;28;20709;-86
2021/06/11 11:12:31;;;;;;;12.27;11.27;;;28.00;64.10;;;;;;5069096;28;20695;-86
2021/06/11 11:14:59;;;;;;;12.77;11.77;;;28.10;67.80;;;;;;5075950;28;20617;-86
2021/06/11 11:17:28;;;;;;;12.40;11.20;;;28.40;66.70;;;;;;5066364;28;20629;-86
2021/06/11 11:19:56;;;;;;;11.90;10.97;;;28.60;64.20;;;;;;5076856;28;20628;-86
2021/06/11 11:22:29;;;;;;;12.70;11.70;;;28.70;63.10;;;;;;5057117;28;20626;-85
2021/06/11 11:24:57;;;;;;;12.50;11.50;;;29.00;60.50;;;;;;5054846;28;20621;-88
2021/06/11 11:27:23;;;;;;;10.70;9.90;;;29.20;62.50;;;;;;5056359;28;20649;-86
2021/06/11 11:29:51;;;;;;;12.37;11.40;;;29.00;65.00;;;;;;5074335;28;20618;-85
2021/06/11 11:32:18;;;;;;;11.30;10.40;;;28.90;66.00;;;;;;5076984;28;20624;-86
2021/06/11 11:34:46;;;;;;;12.77;11.77;;;29.10;66.00;;;;;;5072278;28;20608;-86
2021/06/11 11:37:13;;;;;;;11.87;10.93;;;28.80;63.40;;;;;;5077052;28;20629;-86
2021/06/11 11:39:41;;;;;;;13.00;11.80;;;29.20;65.80;;;;;;5069099;28;20622;-86
2021/06/11 11:42:07;;;;;;;13.57;12.37;;;29.70;63.70;;;;;;5076409;28;20617;-86
2021/06/11 11:44:34;;;;;;;15.27;12.17;;;29.80;57.20;;;;;;5075686;28;20657;-87
2021/06/11 11:47:01;;;;;;;13.37;12.33;;;29.90;61.40;;;;;;5076300;28;20616;-87
2021/06/11 11:49:28;;;;;;;13.00;11.70;;;30.40;57.80;;;;;;5076625;28;20643;-87
2021/06/11 11:51:57;;;;;;;14.00;12.80;;;30.60;57.40;;;;;;5075436;28;20633;-86
2021/06/11 11:54:23;;;;;;;12.57;11.67;;;31.00;57.20;;;;;;5076179;28;20625;-86
2021/06/11 11:56:50;;;;;;;12.90;11.90;;;31.30;57.10;;;;;;5076567;28;20620;-87
2021/06/11 11:59:16;;;;;;;12.73;11.83;;;31.70;53.90;;;;;;5073071;28;20632;-87
2021/06/11 12:01:44;;;;;;;11.40;10.60;;;32.10;54.30;;;;;;5076253;28;20629;-87
2021/06/11 12:04:11;;;;;;;12.70;11.70;;;32.50;52.10;;;;;;5075038;28;20678;-88
2021/06/11 12:06:43;;;;;;;11.57;10.67;;;32.40;50.50;;;;;;5076379;28;20648;-88
2021/06/11 12:09:12;;;;;;;11.30;10.40;;;32.60;49.90;;;;;;5074139;28;20621;-87
2021/06/11 12:11:41;;;;;;;10.20;9.53;;;33.60;49.70;;;;;;5074064;28;20609;-88
2021/06/11 12:14:09;;;;;;;10.60;9.90;;;34.40;45.20;;;;;;5074687;28;20613;-87
2021/06/11 12:16:36;;;;;;;10.23;9.53;;;34.20;45.80;;;;;;5070258;28;21191;-87
2021/06/11 12:19:03;;;;;;;8.77;8.10;;;34.30;47.10;;;;;;5062231;28;21182;-88
2021/06/11 12:21:30;;;;;;;9.30;8.57;;;34.60;47.80;;;;;;5075156;28;20616;-88
2021/06/11 12:23:56;;;;;;;8.63;8.03;;;35.30;47.00;;;;;;5073342;28;20652;-88
2021/06/11 12:26:24;;;;;;;9.83;9.20;;;35.70;46.20;;;;;;5069249;28;20241;-85
2021/06/11 12:28:52;;;;;;;8.90;8.30;;;36.30;45.70;;;;;;5070733;28;20195;-87
2021/06/11 12:31:18;;;;;;;9.25;8.55;;;36.50;43.90;;;;;;5078481;28;20278;-85
2021/06/11 12:33:45;;;;;;;9.10;8.35;;;36.50;43.60;;;;;;5069960;28;20227;-89
2021/06/11 12:36:11;;;;;;;8.50;7.90;;;36.60;42.80;;;;;;5079026;28;20199;-87